地図

経路データ

SID SEASON NUMBER BASIN SUBBASIN NAME ISO_TIME NATURE LAT LON WMO_WIND WMO_PRES WMO_AGENCY TRACK_TYPE DIST2LAND LANDFALL IFLAG USA_AGENCY USA_ATCF_ID USA_LAT USA_LON USA_RECORD USA_STATUS USA_WIND USA_PRES USA_SSHS USA_R34_NE USA_R34_SE USA_R34_SW USA_R34_NW USA_R50_NE USA_R50_SE USA_R50_SW USA_R50_NW USA_R64_NE USA_R64_SE USA_R64_SW USA_R64_NW USA_POCI USA_ROCI USA_RMW USA_EYE TOKYO_LAT TOKYO_LON TOKYO_GRADE TOKYO_WIND TOKYO_PRES TOKYO_R50_DIR TOKYO_R50_LONG TOKYO_R50_SHORT TOKYO_R30_DIR TOKYO_R30_LONG TOKYO_R30_SHORT TOKYO_LAND CMA_LAT CMA_LON CMA_CAT CMA_WIND CMA_PRES HKO_LAT HKO_LON HKO_CAT HKO_WIND HKO_PRES NEWDELHI_LAT NEWDELHI_LON NEWDELHI_GRADE NEWDELHI_WIND NEWDELHI_PRES NEWDELHI_CI NEWDELHI_DP NEWDELHI_POCI REUNION_LAT REUNION_LON REUNION_TYPE REUNION_WIND REUNION_PRES REUNION_TNUM REUNION_CI REUNION_RMW REUNION_R34_NE REUNION_R34_SE REUNION_R34_SW REUNION_R34_NW REUNION_R50_NE REUNION_R50_SE REUNION_R50_SW REUNION_R50_NW REUNION_R64_NE REUNION_R64_SE REUNION_R64_SW REUNION_R64_NW BOM_LAT BOM_LON BOM_TYPE BOM_WIND BOM_PRES BOM_TNUM BOM_CI BOM_RMW BOM_R34_NE BOM_R34_SE BOM_R34_SW BOM_R34_NW BOM_R50_NE BOM_R50_SE BOM_R50_SW BOM_R50_NW BOM_R64_NE BOM_R64_SE BOM_R64_SW BOM_R64_NW BOM_ROCI BOM_POCI BOM_EYE BOM_POS_METHOD BOM_PRES_METHOD NADI_LAT NADI_LON NADI_CAT NADI_WIND NADI_PRES WELLINGTON_LAT WELLINGTON_LON WELLINGTON_WIND WELLINGTON_PRES DS824_LAT DS824_LON DS824_STAGE DS824_WIND DS824_PRES TD9636_LAT TD9636_LON TD9636_STAGE TD9636_WIND TD9636_PRES TD9635_LAT TD9635_LON TD9635_WIND TD9635_PRES TD9635_ROCI NEUMANN_LAT NEUMANN_LON NEUMANN_CLASS NEUMANN_WIND NEUMANN_PRES MLC_LAT MLC_LON MLC_CLASS MLC_WIND MLC_PRES USA_GUST BOM_GUST BOM_GUST_PER REUNION_GUST REUNION_GUST_PER USA_SEAHGT USA_SEARAD_NE USA_SEARAD_SE USA_SEARAD_SW USA_SEARAD_NW STORM_SPEED STORM_DIR
1871080S15108 1871 7 SI WA NOT_NAMED 1871-03-21 06:00:00 NR -15.4000 108.300 spur-split 847 847 _____O________ -1 -15.4000 108.300 99 9.90000 2 246
1871080S15108 1871 7 SI WA NOT_NAMED 1871-03-21 09:00:00 NR -15.4401 108.209 spur-split 850 850 _____P________ -1 -15.4401 108.209 99 2 245
1871080S15108 1871 7 SI WA NOT_NAMED 1871-03-21 12:00:00 NR -15.4835 108.113 spur-split 862 862 _____P________ -1 -15.4835 108.113 99 2 245
1871080S15108 1871 7 SI WA NOT_NAMED 1871-03-21 15:00:00 NR -15.5336 108.005 spur-split 863 863 _____P________ -1 -15.5336 108.005 99 2 244
1871080S15108 1871 7 SI WA NOT_NAMED 1871-03-21 18:00:00 NR -15.5937 107.881 spur-split 875 875 _____P________ -1 -15.5937 107.881 99 3 243
1871080S15108 1871 7 SI WA NOT_NAMED 1871-03-21 21:00:00 NR -15.6671 107.734 spur-split 887 887 _____P________ -1 -15.6671 107.734 99 4 242
1871080S15108 1871 7 SI WA NOT_NAMED 1871-03-22 00:00:00 NR -15.7571 107.558 spur-split 900 900 _____P________ -1 -15.7571 107.558 99 4 242
1871080S15108 1871 7 SI WA NOT_NAMED 1871-03-22 03:00:00 NR -15.8670 107.349 spur-split 914 914 _____P________ -1 -15.8670 107.349 99 5 241
1871080S15108 1871 7 SI WA NOT_NAMED 1871-03-22 06:00:00 NR -16.0000 107.100 spur-split 929 929 _____O________ -1 -16.0000 107.100 99 9.90000 6 241
1871080S15108 1871 7 SI WA NOT_NAMED 1871-03-22 09:00:00 NR -16.1580 106.808 spur-split 956 956 _____P________ -1 -16.1580 106.808 99 7 241
1871080S15108 1871 7 SI WA NOT_NAMED 1871-03-22 12:00:00 NR -16.3376 106.478 spur-split 973 973 _____P________ -1 -16.3376 106.478 99 8 240
1871080S15108 1871 7 SI WA NOT_NAMED 1871-03-22 15:00:00 NR -16.5338 106.120 spur-split 1002 1002 _____P________ -1 -16.5338 106.120 99 8 240
1871080S15108 1871 7 SI WA NOT_NAMED 1871-03-22 18:00:00 NR -16.7419 105.742 spur-split 1033 1033 _____P________ -1 -16.7419 105.742 99 9 240
1871080S15108 1871 7 SI WA NOT_NAMED 1871-03-22 21:00:00 NR -16.9572 105.352 spur-split 1054 1054 _____P________ -1 -16.9572 105.352 99 9 240
1871080S15108 1871 7 SI WA NOT_NAMED 1871-03-23 00:00:00 NR -17.1751 104.959 spur-split 1079 1079 _____P________ -1 -17.1751 104.959 99 9 240
1871080S15108 1871 7 SI WA NOT_NAMED 1871-03-23 03:00:00 NR -17.3908 104.572 spur-split 1105 1105 _____P________ -1 -17.3908 104.572 99 8 240
1871080S15108 1871 7 SI WA NOT_NAMED 1871-03-23 06:00:00 NR -17.6000 104.200 spur-split 1129 1129 _____O________ -1 -17.6000 104.200 99 9.90000 8 240
1871080S15108 1871 7 SI WA NOT_NAMED 1871-03-23 09:00:00 NR -17.7917 103.856 spur-split 1145 1145 _____P________ -1 -17.7917 103.856 99 8 240
1871080S15108 1871 7 SI WA NOT_NAMED 1871-03-23 12:00:00 NR -17.9802 103.519 spur-split 1171 1171 _____P________ -1 -17.9802 103.519 99 7 239
1871080S15108 1871 7 SI WA NOT_NAMED 1871-03-23 15:00:00 NR -18.1649 103.193 spur-split 1189 1189 _____P________ -1 -18.1649 103.193 99 7 239
1871080S15108 1871 7 SI WA NOT_NAMED 1871-03-23 18:00:00 NR -18.3447 102.880 spur-split 1213 1208 _____P________ -1 -18.3447 102.880 99 7 239
1871080S15108 1871 7 SI WA NOT_NAMED 1871-03-23 21:00:00 NR -18.5190 102.582 spur-split 1233 1233 _____P________ -1 -18.5190 102.582 99 6 238
1871080S15108 1871 7 SI WA NOT_NAMED 1871-03-24 00:00:00 NR -18.6868 102.301 spur-split 1253 1253 _____P________ -1 -18.6868 102.301 99 6 237
1871080S15108 1871 7 SI WA NOT_NAMED 1871-03-24 03:00:00 NR -18.8474 102.039 spur-split 1278 1274 _____P________ -1 -18.8474 102.039 99 6 237
1871080S15108 1871 7 SI WA NOT_NAMED 1871-03-24 06:00:00 NR -19.0000 101.800 spur-split 1290 1290 _____O________ -1 -19.0000 101.800 99 9.90000 5 235
1871080S15108 1871 7 SI WA NOT_NAMED 1871-03-24 09:00:00 NR -19.1441 101.584 spur-split 1306 1302 _____P________ -1 -19.1441 101.584 99 5 234
1871080S15108 1871 7 SI WA NOT_NAMED 1871-03-24 12:00:00 NR -19.2805 101.390 spur-split 1318 1318 _____P________ -1 -19.2805 101.390 99 4 233
1871080S15108 1871 7 SI WA NOT_NAMED 1871-03-24 15:00:00 NR -19.4104 101.213 spur-split 1335 1331 _____P________ -1 -19.4104 101.213 99 4 231
1871080S15108 1871 7 SI WA NOT_NAMED 1871-03-24 18:00:00 NR -19.5349 101.052 spur-split 1341 1341 _____P________ -1 -19.5349 101.052 99 4 230
1871080S15108 1871 7 SI WA NOT_NAMED 1871-03-24 21:00:00 NR -19.6550 100.904 spur-split 1355 1355 _____P________ -1 -19.6550 100.904 99 4 229
1871080S15108 1871 7 SI WA NOT_NAMED 1871-03-25 00:00:00 NR -19.7718 100.764 spur-split 1362 1362 _____P________ -1 -19.7718 100.764 99 3 228
1871080S15108 1871 7 SI WA NOT_NAMED 1871-03-25 03:00:00 NR -19.8865 100.631 spur-split 1379 1376 _____P________ -1 -19.8865 100.631 99 3 227
1871080S15108 1871 7 SI WA NOT_NAMED 1871-03-25 06:00:00 NR -20.0000 100.500 spur-split 1387 _____O________ -1 -20.0000 100.500 99 9.90000 3 227

IBTrACS Databaseについて

本データベースは、米国NOAAが公開する1842年以降の世界の熱帯低気圧のベストトラックデータアーカイブInternational Best Track Archive for Climate Stewardship (IBTrACS)を、ウェブで閲覧しやすい形式に変換したものです。

最終更新日:2021-11-26